sensor_id;sensor_type;location;lat;lon;timestamp;temperature;humidity
51719;DHT22;37795;53.236;5.704;2023-02-20T00:02:05;5.60;86.00
51719;DHT22;37795;53.236;5.704;2023-02-20T00:04:31;5.60;86.00
51719;DHT22;37795;53.236;5.704;2023-02-20T00:06:56;5.60;86.10
51719;DHT22;37795;53.236;5.704;2023-02-20T00:09:22;5.70;85.90
51719;DHT22;37795;53.236;5.704;2023-02-20T00:11:47;5.70;85.90
51719;DHT22;37795;53.236;5.704;2023-02-20T00:14:13;5.70;85.80
51719;DHT22;37795;53.236;5.704;2023-02-20T00:16:39;5.80;85.70
51719;DHT22;37795;53.236;5.704;2023-02-20T00:19:05;5.80;85.50
51719;DHT22;37795;53.236;5.704;2023-02-20T00:21:30;5.80;85.40
51719;DHT22;37795;53.236;5.704;2023-02-20T00:23:56;5.90;85.40
51719;DHT22;37795;53.236;5.704;2023-02-20T00:26:22;5.90;85.30
51719;DHT22;37795;53.236;5.704;2023-02-20T00:28:47;5.90;85.20
51719;DHT22;37795;53.236;5.704;2023-02-20T00:31:15;5.90;85.10
51719;DHT22;37795;53.236;5.704;2023-02-20T00:33:43;5.90;84.90
51719;DHT22;37795;53.236;5.704;2023-02-20T00:36:17;5.90;85.00
51719;DHT22;37795;53.236;5.704;2023-02-20T00:38:43;5.90;84.90
51719;DHT22;37795;53.236;5.704;2023-02-20T00:41:10;5.90;85.00
51719;DHT22;37795;53.236;5.704;2023-02-20T00:43:39;5.90;85.10
51719;DHT22;37795;53.236;5.704;2023-02-20T00:46:05;5.90;85.00
51719;DHT22;37795;53.236;5.704;2023-02-20T00:48:30;5.90;85.10
51719;DHT22;37795;53.236;5.704;2023-02-20T00:50:56;5.90;85.10
51719;DHT22;37795;53.236;5.704;2023-02-20T00:53:22;5.90;84.90
51719;DHT22;37795;53.236;5.704;2023-02-20T00:55:47;5.90;84.80
51719;DHT22;37795;53.236;5.704;2023-02-20T00:58:13;6.00;84.60
51719;DHT22;37795;53.236;5.704;2023-02-20T01:00:39;6.00;84.50
51719;DHT22;37795;53.236;5.704;2023-02-20T01:03:04;6.00;84.50
51719;DHT22;37795;53.236;5.704;2023-02-20T01:05:30;6.00;84.40
51719;DHT22;37795;53.236;5.704;2023-02-20T01:07:56;6.10;84.30
51719;DHT22;37795;53.236;5.704;2023-02-20T01:10:21;6.20;84.10
51719;DHT22;37795;53.236;5.704;2023-02-20T01:12:47;6.20;83.80
51719;DHT22;37795;53.236;5.704;2023-02-20T01:15:13;6.30;83.70
51719;DHT22;37795;53.236;5.704;2023-02-20T01:17:39;6.30;83.60
51719;DHT22;37795;53.236;5.704;2023-02-20T01:20:06;6.30;83.30
51719;DHT22;37795;53.236;5.704;2023-02-20T01:22:33;6.30;83.10
51719;DHT22;37795;53.236;5.704;2023-02-20T01:24:58;6.40;83.00
51719;DHT22;37795;53.236;5.704;2023-02-20T01:27:24;6.40;82.40
51719;DHT22;37795;53.236;5.704;2023-02-20T01:29:50;6.50;81.90
51719;DHT22;37795;53.236;5.704;2023-02-20T01:32:15;6.50;81.60
51719;DHT22;37795;53.236;5.704;2023-02-20T01:34:41;6.60;81.60
51719;DHT22;37795;53.236;5.704;2023-02-20T01:37:12;6.70;81.20
51719;DHT22;37795;53.236;5.704;2023-02-20T01:39:38;6.70;81.10
51719;DHT22;37795;53.236;5.704;2023-02-20T01:42:06;6.80;80.90
51719;DHT22;37795;53.236;5.704;2023-02-20T01:44:35;6.90;80.80
51719;DHT22;37795;53.236;5.704;2023-02-20T01:47:05;7.00;80.60
51719;DHT22;37795;53.236;5.704;2023-02-20T01:49:45;7.00;80.80
51719;DHT22;37795;53.236;5.704;2023-02-20T01:52:16;7.10;80.70
51719;DHT22;37795;53.236;5.704;2023-02-20T01:54:46;7.10;80.70
51719;DHT22;37795;53.236;5.704;2023-02-20T01:57:19;7.20;80.80
51719;DHT22;37795;53.236;5.704;2023-02-20T01:59:47;7.20;80.80
51719;DHT22;37795;53.236;5.704;2023-02-20T02:02:14;7.20;81.10
51719;DHT22;37795;53.236;5.704;2023-02-20T02:04:41;7.30;81.00
51719;DHT22;37795;53.236;5.704;2023-02-20T02:07:09;7.30;81.10
51719;DHT22;37795;53.236;5.704;2023-02-20T02:12:04;7.40;81.00
51719;DHT22;37795;53.236;5.704;2023-02-20T02:14:30;7.30;81.20
51719;DHT22;37795;53.236;5.704;2023-02-20T02:26:02;7.30;82.00
51719;DHT22;37795;53.236;5.704;2023-02-20T02:28:46;7.30;82.30
51719;DHT22;37795;53.236;5.704;2023-02-20T02:31:26;7.20;82.60
51719;DHT22;37795;53.236;5.704;2023-02-20T02:37:26;7.20;82.80
51719;DHT22;37795;53.236;5.704;2023-02-20T02:39:55;7.20;82.90
51719;DHT22;37795;53.236;5.704;2023-02-20T02:45:41;7.20;83.40
51719;DHT22;37795;53.236;5.704;2023-02-20T02:48:45;7.20;83.40
51719;DHT22;37795;53.236;5.704;2023-02-20T02:51:22;7.20;83.40
51719;DHT22;37795;53.236;5.704;2023-02-20T02:56:39;7.20;83.70
51719;DHT22;37795;53.236;5.704;2023-02-20T02:59:07;7.30;83.60
51719;DHT22;37795;53.236;5.704;2023-02-20T03:01:38;7.20;83.90
51719;DHT22;37795;53.236;5.704;2023-02-20T03:04:07;7.20;83.80
51719;DHT22;37795;53.236;5.704;2023-02-20T03:06:37;7.30;83.60
51719;DHT22;37795;53.236;5.704;2023-02-20T03:09:11;7.20;83.70
51719;DHT22;37795;53.236;5.704;2023-02-20T03:11:39;7.20;83.90
51719;DHT22;37795;53.236;5.704;2023-02-20T03:17:17;7.20;84.00
51719;DHT22;37795;53.236;5.704;2023-02-20T03:19:48;7.20;83.90
51719;DHT22;37795;53.236;5.704;2023-02-20T03:22:23;7.10;83.90
51719;DHT22;37795;53.236;5.704;2023-02-20T03:24:53;7.20;84.10
51719;DHT22;37795;53.236;5.704;2023-02-20T03:29:56;7.10;84.50
51719;DHT22;37795;53.236;5.704;2023-02-20T03:32:25;7.10;84.60
51719;DHT22;37795;53.236;5.704;2023-02-20T03:35:12;7.10;84.60
51719;DHT22;37795;53.236;5.704;2023-02-20T03:37:57;7.10;84.60
51719;DHT22;37795;53.236;5.704;2023-02-20T03:40:44;7.00;84.60
51719;DHT22;37795;53.236;5.704;2023-02-20T03:43:30;7.00;84.70
51719;DHT22;37795;53.236;5.704;2023-02-20T03:46:10;7.00;84.90
51719;DHT22;37795;53.236;5.704;2023-02-20T03:48:45;7.00;84.80
51719;DHT22;37795;53.236;5.704;2023-02-20T03:51:13;7.00;84.70
51719;DHT22;37795;53.236;5.704;2023-02-20T03:53:58;7.00;84.80
51719;DHT22;37795;53.236;5.704;2023-02-20T03:56:52;7.00;84.80
51719;DHT22;37795;53.236;5.704;2023-02-20T03:59:52;7.00;84.70
51719;DHT22;37795;53.236;5.704;2023-02-20T04:02:23;7.00;84.60
51719;DHT22;37795;53.236;5.704;2023-02-20T04:04:56;7.00;84.50
51719;DHT22;37795;53.236;5.704;2023-02-20T04:07:29;7.00;84.40
51719;DHT22;37795;53.236;5.704;2023-02-20T04:09:57;7.00;84.40
51719;DHT22;37795;53.236;5.704;2023-02-20T04:12:28;7.00;84.30
51719;DHT22;37795;53.236;5.704;2023-02-20T04:14:56;6.90;84.40
51719;DHT22;37795;53.236;5.704;2023-02-20T04:17:25;6.90;84.40
51719;DHT22;37795;53.236;5.704;2023-02-20T04:19:52;6.90;84.30
51719;DHT22;37795;53.236;5.704;2023-02-20T04:22:25;6.90;84.40
51719;DHT22;37795;53.236;5.704;2023-02-20T04:27:43;6.90;84.10
51719;DHT22;37795;53.236;5.704;2023-02-20T04:30:09;6.90;84.00
51719;DHT22;37795;53.236;5.704;2023-02-20T04:32:35;6.80;84.00
51719;DHT22;37795;53.236;5.704;2023-02-20T04:35:01;6.80;84.00
51719;DHT22;37795;53.236;5.704;2023-02-20T04:37:26;6.90;83.70
51719;DHT22;37795;53.236;5.704;2023-02-20T04:39:52;6.80;84.00
51719;DHT22;37795;53.236;5.704;2023-02-20T04:42:18;6.90;84.00
51719;DHT22;37795;53.236;5.704;2023-02-20T04:44:43;6.80;84.00
51719;DHT22;37795;53.236;5.704;2023-02-20T04:47:15;6.80;84.00
51719;DHT22;37795;53.236;5.704;2023-02-20T04:49:41;6.90;84.10
51719;DHT22;37795;53.236;5.704;2023-02-20T04:52:07;6.90;84.10
51719;DHT22;37795;53.236;5.704;2023-02-20T04:54:33;6.80;84.20
51719;DHT22;37795;53.236;5.704;2023-02-20T04:56:59;6.80;84.30
51719;DHT22;37795;53.236;5.704;2023-02-20T04:59:24;6.90;84.20
51719;DHT22;37795;53.236;5.704;2023-02-20T05:01:50;6.90;84.10
51719;DHT22;37795;53.236;5.704;2023-02-20T05:04:18;6.80;84.10
51719;DHT22;37795;53.236;5.704;2023-02-20T05:06:50;6.80;84.30
51719;DHT22;37795;53.236;5.704;2023-02-20T05:09:17;6.80;84.40
51719;DHT22;37795;53.236;5.704;2023-02-20T05:11:43;6.80;84.40
51719;DHT22;37795;53.236;5.704;2023-02-20T05:14:09;6.80;84.40
51719;DHT22;37795;53.236;5.704;2023-02-20T05:16:37;6.80;84.20
51719;DHT22;37795;53.236;5.704;2023-02-20T05:19:03;6.80;84.30
51719;DHT22;37795;53.236;5.704;2023-02-20T05:21:29;6.80;84.40
51719;DHT22;37795;53.236;5.704;2023-02-20T05:24:14;6.80;84.70
51719;DHT22;37795;53.236;5.704;2023-02-20T05:26:40;6.70;84.70
51719;DHT22;37795;53.236;5.704;2023-02-20T05:29:06;6.70;84.80
51719;DHT22;37795;53.236;5.704;2023-02-20T05:31:34;6.80;84.90
51719;DHT22;37795;53.236;5.704;2023-02-20T05:34:00;6.70;85.00
51719;DHT22;37795;53.236;5.704;2023-02-20T05:36:26;6.80;85.00
51719;DHT22;37795;53.236;5.704;2023-02-20T05:38:52;6.80;85.00
51719;DHT22;37795;53.236;5.704;2023-02-20T05:41:18;6.80;85.10
51719;DHT22;37795;53.236;5.704;2023-02-20T05:43:44;6.80;85.20
51719;DHT22;37795;53.236;5.704;2023-02-20T05:46:10;6.80;85.20
51719;DHT22;37795;53.236;5.704;2023-02-20T05:48:36;6.80;85.20
51719;DHT22;37795;53.236;5.704;2023-02-20T05:51:01;6.80;85.20
51719;DHT22;37795;53.236;5.704;2023-02-20T05:53:28;6.80;85.30
51719;DHT22;37795;53.236;5.704;2023-02-20T05:55:54;6.80;85.30
51719;DHT22;37795;53.236;5.704;2023-02-20T05:58:20;6.80;85.30
51719;DHT22;37795;53.236;5.704;2023-02-20T06:00:45;6.70;85.40
51719;DHT22;37795;53.236;5.704;2023-02-20T06:03:13;6.80;85.40
51719;DHT22;37795;53.236;5.704;2023-02-20T06:05:39;6.70;85.50
51719;DHT22;37795;53.236;5.704;2023-02-20T06:08:05;6.70;85.60
51719;DHT22;37795;53.236;5.704;2023-02-20T06:10:31;6.70;85.70
51719;DHT22;37795;53.236;5.704;2023-02-20T06:12:57;6.70;85.60
51719;DHT22;37795;53.236;5.704;2023-02-20T06:15:22;6.70;85.50
51719;DHT22;37795;53.236;5.704;2023-02-20T06:17:48;6.70;85.60
51719;DHT22;37795;53.236;5.704;2023-02-20T06:20:14;6.80;85.70
51719;DHT22;37795;53.236;5.704;2023-02-20T06:22:40;6.80;85.40
51719;DHT22;37795;53.236;5.704;2023-02-20T06:25:06;6.80;85.30
51719;DHT22;37795;53.236;5.704;2023-02-20T06:27:32;6.80;85.30
51719;DHT22;37795;53.236;5.704;2023-02-20T06:29:57;6.70;85.40
51719;DHT22;37795;53.236;5.704;2023-02-20T06:32:23;6.80;85.40
51719;DHT22;37795;53.236;5.704;2023-02-20T06:34:49;6.80;85.40
51719;DHT22;37795;53.236;5.704;2023-02-20T06:37:15;6.80;85.40
51719;DHT22;37795;53.236;5.704;2023-02-20T06:39:41;6.80;85.50
51719;DHT22;37795;53.236;5.704;2023-02-20T06:42:10;6.80;85.50
51719;DHT22;37795;53.236;5.704;2023-02-20T06:44:36;6.80;85.40
51719;DHT22;37795;53.236;5.704;2023-02-20T06:47:02;6.80;85.40
51719;DHT22;37795;53.236;5.704;2023-02-20T06:49:34;6.80;85.50
51719;DHT22;37795;53.236;5.704;2023-02-20T06:57:44;7.20;85.40
51719;DHT22;37795;53.236;5.704;2023-02-20T07:00:10;6.80;85.40
51719;DHT22;37795;53.236;5.704;2023-02-20T07:02:36;6.80;85.50
51719;DHT22;37795;53.236;5.704;2023-02-20T07:05:05;6.90;85.40
51719;DHT22;37795;53.236;5.704;2023-02-20T07:07:31;6.90;85.40
51719;DHT22;37795;53.236;5.704;2023-02-20T07:09:57;6.90;85.20
51719;DHT22;37795;53.236;5.704;2023-02-20T07:12:29;6.90;85.30
51719;DHT22;37795;53.236;5.704;2023-02-20T07:14:55;6.90;85.30
51719;DHT22;37795;53.236;5.704;2023-02-20T07:17:21;6.90;85.40
51719;DHT22;37795;53.236;5.704;2023-02-20T07:19:47;6.90;85.40
51719;DHT22;37795;53.236;5.704;2023-02-20T07:22:12;6.90;85.50
51719;DHT22;37795;53.236;5.704;2023-02-20T07:24:38;6.90;85.40
51719;DHT22;37795;53.236;5.704;2023-02-20T07:27:06;7.00;85.40
51719;DHT22;37795;53.236;5.704;2023-02-20T07:29:32;7.00;85.20
51719;DHT22;37795;53.236;5.704;2023-02-20T07:31:58;7.00;85.10
51719;DHT22;37795;53.236;5.704;2023-02-20T07:34:23;7.00;85.10
51719;DHT22;37795;53.236;5.704;2023-02-20T07:36:49;7.10;85.10
51719;DHT22;37795;53.236;5.704;2023-02-20T07:39:15;7.10;85.00
51719;DHT22;37795;53.236;5.704;2023-02-20T07:41:40;7.10;84.90
51719;DHT22;37795;53.236;5.704;2023-02-20T07:44:06;7.10;84.80
51719;DHT22;37795;53.236;5.704;2023-02-20T07:46:32;7.10;85.00
51719;DHT22;37795;53.236;5.704;2023-02-20T07:49:03;7.10;85.00
51719;DHT22;37795;53.236;5.704;2023-02-20T07:51:30;7.10;85.20
51719;DHT22;37795;53.236;5.704;2023-02-20T07:53:56;7.10;85.10
51719;DHT22;37795;53.236;5.704;2023-02-20T07:56:22;7.20;85.00
51719;DHT22;37795;53.236;5.704;2023-02-20T07:58:49;7.20;84.90
51719;DHT22;37795;53.236;5.704;2023-02-20T08:01:15;7.20;84.80
51719;DHT22;37795;53.236;5.704;2023-02-20T08:03:42;7.30;84.90
51719;DHT22;37795;53.236;5.704;2023-02-20T08:06:08;7.30;84.70
51719;DHT22;37795;53.236;5.704;2023-02-20T08:08:33;7.30;84.80
51719;DHT22;37795;53.236;5.704;2023-02-20T08:10:59;7.30;84.80
51719;DHT22;37795;53.236;5.704;2023-02-20T08:13:25;7.30;84.90
51719;DHT22;37795;53.236;5.704;2023-02-20T08:15:51;7.30;84.90
51719;DHT22;37795;53.236;5.704;2023-02-20T08:18:16;7.30;84.90
51719;DHT22;37795;53.236;5.704;2023-02-20T08:20:42;7.30;84.90
51719;DHT22;37795;53.236;5.704;2023-02-20T08:23:22;7.40;84.90
51719;DHT22;37795;53.236;5.704;2023-02-20T08:25:49;7.40;84.90
51719;DHT22;37795;53.236;5.704;2023-02-20T08:28:15;7.40;84.80
51719;DHT22;37795;53.236;5.704;2023-02-20T08:30:41;7.40;84.80
51719;DHT22;37795;53.236;5.704;2023-02-20T08:33:07;7.50;84.60
51719;DHT22;37795;53.236;5.704;2023-02-20T08:35:32;7.50;84.50
51719;DHT22;37795;53.236;5.704;2023-02-20T08:38:05;7.50;84.40
51719;DHT22;37795;53.236;5.704;2023-02-20T08:40:32;7.50;84.40
51719;DHT22;37795;53.236;5.704;2023-02-20T08:42:58;7.50;84.50
51719;DHT22;37795;53.236;5.704;2023-02-20T08:45:26;7.60;84.50
51719;DHT22;37795;53.236;5.704;2023-02-20T08:47:55;7.50;84.70
51719;DHT22;37795;53.236;5.704;2023-02-20T08:50:26;7.50;84.70
51719;DHT22;37795;53.236;5.704;2023-02-20T08:52:51;7.60;84.70
51719;DHT22;37795;53.236;5.704;2023-02-20T08:55:17;7.60;84.70
51719;DHT22;37795;53.236;5.704;2023-02-20T08:57:43;7.60;84.70
51719;DHT22;37795;53.236;5.704;2023-02-20T09:00:09;7.50;84.70
51719;DHT22;37795;53.236;5.704;2023-02-20T09:02:35;7.50;84.90
51719;DHT22;37795;53.236;5.704;2023-02-20T09:05:01;7.50;84.90
51719;DHT22;37795;53.236;5.704;2023-02-20T09:07:26;7.50;84.80
51719;DHT22;37795;53.236;5.704;2023-02-20T09:09:52;7.60;84.90
51719;DHT22;37795;53.236;5.704;2023-02-20T09:12:18;7.60;84.90
51719;DHT22;37795;53.236;5.704;2023-02-20T09:14:44;7.60;84.90
51719;DHT22;37795;53.236;5.704;2023-02-20T09:17:10;7.60;84.80
51719;DHT22;37795;53.236;5.704;2023-02-20T09:19:35;7.60;84.70
51719;DHT22;37795;53.236;5.704;2023-02-20T09:22:01;7.60;84.70
51719;DHT22;37795;53.236;5.704;2023-02-20T09:24:27;7.60;84.70
51719;DHT22;37795;53.236;5.704;2023-02-20T09:26:56;7.60;84.50
51719;DHT22;37795;53.236;5.704;2023-02-20T09:29:22;7.70;84.70
51719;DHT22;37795;53.236;5.704;2023-02-20T09:31:48;7.70;84.70
51719;DHT22;37795;53.236;5.704;2023-02-20T09:34:14;7.70;84.70
51719;DHT22;37795;53.236;5.704;2023-02-20T09:36:39;7.70;84.70
51719;DHT22;37795;53.236;5.704;2023-02-20T09:39:05;7.70;84.90
51719;DHT22;37795;53.236;5.704;2023-02-20T09:49:52;7.80;84.60
51719;DHT22;37795;53.236;5.704;2023-02-20T09:52:21;7.80;84.60
51719;DHT22;37795;53.236;5.704;2023-02-20T09:55:01;7.80;84.70
51719;DHT22;37795;53.236;5.704;2023-02-20T09:57:28;7.80;84.70
51719;DHT22;37795;53.236;5.704;2023-02-20T10:00:07;7.80;84.80
51719;DHT22;37795;53.236;5.704;2023-02-20T10:02:37;7.80;84.70
51719;DHT22;37795;53.236;5.704;2023-02-20T10:05:17;7.90;84.80
51719;DHT22;37795;53.236;5.704;2023-02-20T10:07:44;7.90;84.60
51719;DHT22;37795;53.236;5.704;2023-02-20T10:10:19;8.00;84.70
51719;DHT22;37795;53.236;5.704;2023-02-20T10:15:37;8.00;84.50
51719;DHT22;37795;53.236;5.704;2023-02-20T10:21:00;8.10;84.30
51719;DHT22;37795;53.236;5.704;2023-02-20T10:23:51;8.20;84.10
51719;DHT22;37795;53.236;5.704;2023-02-20T10:26:28;8.20;83.90
51719;DHT22;37795;53.236;5.704;2023-02-20T10:29:00;8.20;83.70
51719;DHT22;37795;53.236;5.704;2023-02-20T10:31:38;8.30;83.70
51719;DHT22;37795;53.236;5.704;2023-02-20T10:34:12;8.30;83.50
51719;DHT22;37795;53.236;5.704;2023-02-20T10:36:46;8.30;83.40
51719;DHT22;37795;53.236;5.704;2023-02-20T10:39:16;8.40;83.40
51719;DHT22;37795;53.236;5.704;2023-02-20T10:47:27;8.50;83.40
51719;DHT22;37795;53.236;5.704;2023-02-20T10:50:07;8.50;83.20
51719;DHT22;37795;53.236;5.704;2023-02-20T10:57:49;9.10;81.80
51719;DHT22;37795;53.236;5.704;2023-02-20T11:00:24;8.70;82.50
51719;DHT22;37795;53.236;5.704;2023-02-20T11:02:56;8.60;82.40
51719;DHT22;37795;53.236;5.704;2023-02-20T11:05:26;8.70;82.70
51719;DHT22;37795;53.236;5.704;2023-02-20T11:07:55;8.70;82.80
51719;DHT22;37795;53.236;5.704;2023-02-20T11:10:21;8.70;82.30
51719;DHT22;37795;53.236;5.704;2023-02-20T11:12:51;8.60;82.50
51719;DHT22;37795;53.236;5.704;2023-02-20T11:15:21;8.70;82.50
51719;DHT22;37795;53.236;5.704;2023-02-20T11:17:53;8.70;82.20
51719;DHT22;37795;53.236;5.704;2023-02-20T11:22:58;8.70;82.30
51719;DHT22;37795;53.236;5.704;2023-02-20T11:27:58;8.70;82.50
51719;DHT22;37795;53.236;5.704;2023-02-20T11:30:31;8.80;82.50
51719;DHT22;37795;53.236;5.704;2023-02-20T11:33:05;8.80;82.30
51719;DHT22;37795;53.236;5.704;2023-02-20T11:35:40;8.80;82.30
51719;DHT22;37795;53.236;5.704;2023-02-20T11:43:27;8.90;82.60
51719;DHT22;37795;53.236;5.704;2023-02-20T11:46:19;8.90;81.90
51719;DHT22;37795;53.236;5.704;2023-02-20T11:49:02;9.00;81.90
51719;DHT22;37795;53.236;5.704;2023-02-20T11:51:40;9.00;81.80
51719;DHT22;37795;53.236;5.704;2023-02-20T11:54:14;9.00;81.80
51719;DHT22;37795;53.236;5.704;2023-02-20T11:57:01;9.00;81.70
51719;DHT22;37795;53.236;5.704;2023-02-20T11:59:44;9.00;81.70
51719;DHT22;37795;53.236;5.704;2023-02-20T12:12:56;9.30;81.10
51719;DHT22;37795;53.236;5.704;2023-02-20T12:15:24;9.30;80.80
51719;DHT22;37795;53.236;5.704;2023-02-20T12:20:39;9.50;80.60
51719;DHT22;37795;53.236;5.704;2023-02-20T12:26:18;9.50;80.10
51719;DHT22;37795;53.236;5.704;2023-02-20T12:31:40;9.50;80.20
51719;DHT22;37795;53.236;5.704;2023-02-20T12:34:31;9.50;80.10
51719;DHT22;37795;53.236;5.704;2023-02-20T12:37:21;9.60;80.30
51719;DHT22;37795;53.236;5.704;2023-02-20T12:42:33;9.70;79.50
51719;DHT22;37795;53.236;5.704;2023-02-20T12:45:17;9.80;79.60
51719;DHT22;37795;53.236;5.704;2023-02-20T12:47:44;9.90;79.20
51719;DHT22;37795;53.236;5.704;2023-02-20T12:50:41;9.90;79.00
51719;DHT22;37795;53.236;5.704;2023-02-20T13:02:26;9.90;78.70
51719;DHT22;37795;53.236;5.704;2023-02-20T13:04:56;9.90;78.90
51719;DHT22;37795;53.236;5.704;2023-02-20T13:07:36;10.00;79.30
51719;DHT22;37795;53.236;5.704;2023-02-20T13:12:47;10.10;78.60
51719;DHT22;37795;53.236;5.704;2023-02-20T13:15:32;10.10;78.40
51719;DHT22;37795;53.236;5.704;2023-02-20T13:20:31;9.90;78.90
51719;DHT22;37795;53.236;5.704;2023-02-20T13:25:48;9.90;79.20
51719;DHT22;37795;53.236;5.704;2023-02-20T13:28:36;9.90;79.30
51719;DHT22;37795;53.236;5.704;2023-02-20T13:31:22;9.90;78.90
51719;DHT22;37795;53.236;5.704;2023-02-20T13:36:43;10.00;78.80
51719;DHT22;37795;53.236;5.704;2023-02-20T13:47:02;10.10;78.30
51719;DHT22;37795;53.236;5.704;2023-02-20T13:49:55;10.10;78.20
51719;DHT22;37795;53.236;5.704;2023-02-20T14:03:28;10.40;77.90
51719;DHT22;37795;53.236;5.704;2023-02-20T14:06:11;10.50;77.30
51719;DHT22;37795;53.236;5.704;2023-02-20T14:08:43;10.60;77.20
51719;DHT22;37795;53.236;5.704;2023-02-20T14:11:14;10.70;77.30
51719;DHT22;37795;53.236;5.704;2023-02-20T14:13:43;10.70;76.70
51719;DHT22;37795;53.236;5.704;2023-02-20T14:16:28;10.80;76.80
51719;DHT22;37795;53.236;5.704;2023-02-20T14:19:15;10.80;76.60
51719;DHT22;37795;53.236;5.704;2023-02-20T14:21:43;11.00;75.70
51719;DHT22;37795;53.236;5.704;2023-02-20T14:24:21;11.10;75.30
51719;DHT22;37795;53.236;5.704;2023-02-20T14:26:48;11.00;75.30
51719;DHT22;37795;53.236;5.704;2023-02-20T14:29:29;11.00;75.60
51719;DHT22;37795;53.236;5.704;2023-02-20T14:31:58;11.10;75.30
51719;DHT22;37795;53.236;5.704;2023-02-20T14:34:47;11.00;75.20
51719;DHT22;37795;53.236;5.704;2023-02-20T14:40:21;11.10;75.40
51719;DHT22;37795;53.236;5.704;2023-02-20T14:42:49;11.20;75.40
51719;DHT22;37795;53.236;5.704;2023-02-20T14:45:25;11.10;75.20
51719;DHT22;37795;53.236;5.704;2023-02-20T14:47:59;11.00;75.30
51719;DHT22;37795;53.236;5.704;2023-02-20T14:50:33;11.20;75.70
51719;DHT22;37795;53.236;5.704;2023-02-20T14:53:13;11.20;74.60
51719;DHT22;37795;53.236;5.704;2023-02-20T14:55:40;11.30;75.00
51719;DHT22;37795;53.236;5.704;2023-02-20T14:58:18;11.10;75.00
51719;DHT22;37795;53.236;5.704;2023-02-20T15:00:45;11.30;74.40
51719;DHT22;37795;53.236;5.704;2023-02-20T15:03:21;11.40;74.10
51719;DHT22;37795;53.236;5.704;2023-02-20T15:05:48;11.70;74.40
51719;DHT22;37795;53.236;5.704;2023-02-20T15:13:14;11.40;74.70
51719;DHT22;37795;53.236;5.704;2023-02-20T15:15:46;11.40;74.00
51719;DHT22;37795;53.236;5.704;2023-02-20T15:18:15;11.10;75.00
51719;DHT22;37795;53.236;5.704;2023-02-20T15:20:44;11.50;73.20
51719;DHT22;37795;53.236;5.704;2023-02-20T15:23:20;11.50;73.80
51719;DHT22;37795;53.236;5.704;2023-02-20T15:25:47;11.00;74.30
51719;DHT22;37795;53.236;5.704;2023-02-20T15:36:04;11.90;70.90
51719;DHT22;37795;53.236;5.704;2023-02-20T15:38:33;11.80;72.10
51719;DHT22;37795;53.236;5.704;2023-02-20T15:41:00;11.90;72.20
51719;DHT22;37795;53.236;5.704;2023-02-20T15:43:26;11.10;73.50
51719;DHT22;37795;53.236;5.704;2023-02-20T15:45:52;11.10;74.10
51719;DHT22;37795;53.236;5.704;2023-02-20T15:48:18;10.80;74.90
51719;DHT22;37795;53.236;5.704;2023-02-20T15:50:44;10.60;75.80
51719;DHT22;37795;53.236;5.704;2023-02-20T15:53:16;10.30;76.50
51719;DHT22;37795;53.236;5.704;2023-02-20T15:55:43;10.20;78.00
51719;DHT22;37795;53.236;5.704;2023-02-20T15:58:29;10.20;77.40
51719;DHT22;37795;53.236;5.704;2023-02-20T16:00:55;10.20;77.40
51719;DHT22;37795;53.236;5.704;2023-02-20T16:03:22;10.40;76.30
51719;DHT22;37795;53.236;5.704;2023-02-20T16:05:48;10.80;75.80
51719;DHT22;37795;53.236;5.704;2023-02-20T16:08:14;10.90;75.30
51719;DHT22;37795;53.236;5.704;2023-02-20T16:10:39;10.90;75.70
51719;DHT22;37795;53.236;5.704;2023-02-20T16:13:07;11.10;74.50
51719;DHT22;37795;53.236;5.704;2023-02-20T16:15:40;10.80;75.10
51719;DHT22;37795;53.236;5.704;2023-02-20T16:18:07;10.80;76.10
51719;DHT22;37795;53.236;5.704;2023-02-20T16:20:33;10.80;74.80
51719;DHT22;37795;53.236;5.704;2023-02-20T16:22:58;10.70;75.70
51719;DHT22;37795;53.236;5.704;2023-02-20T16:25:25;10.30;77.20
51719;DHT22;37795;53.236;5.704;2023-02-20T16:27:54;10.00;78.30
51719;DHT22;37795;53.236;5.704;2023-02-20T16:30:33;9.80;79.00
51719;DHT22;37795;53.236;5.704;2023-02-20T16:33:16;9.70;79.10
51719;DHT22;37795;53.236;5.704;2023-02-20T16:35:42;9.40;80.10
51719;DHT22;37795;53.236;5.704;2023-02-20T16:38:08;9.20;80.90
51719;DHT22;37795;53.236;5.704;2023-02-20T16:40:34;9.20;81.70
51719;DHT22;37795;53.236;5.704;2023-02-20T16:43:01;9.20;81.40
51719;DHT22;37795;53.236;5.704;2023-02-20T16:45:26;9.00;82.20
51719;DHT22;37795;53.236;5.704;2023-02-20T16:47:53;9.00;82.30
51719;DHT22;37795;53.236;5.704;2023-02-20T16:50:23;9.00;82.20
51719;DHT22;37795;53.236;5.704;2023-02-20T16:52:51;8.90;82.60
51719;DHT22;37795;53.236;5.704;2023-02-20T16:55:40;8.90;82.70
51719;DHT22;37795;53.236;5.704;2023-02-20T16:58:09;8.80;83.40
51719;DHT22;37795;53.236;5.704;2023-02-20T17:00:37;8.80;83.10
51719;DHT22;37795;53.236;5.704;2023-02-20T17:03:06;8.80;82.70
51719;DHT22;37795;53.236;5.704;2023-02-20T17:05:33;8.70;83.50
51719;DHT22;37795;53.236;5.704;2023-02-20T17:07:59;8.80;83.50
51719;DHT22;37795;53.236;5.704;2023-02-20T17:10:26;8.80;83.50
51719;DHT22;37795;53.236;5.704;2023-02-20T17:12:53;8.90;83.00
51719;DHT22;37795;53.236;5.704;2023-02-20T17:15:20;8.70;83.30
51719;DHT22;37795;53.236;5.704;2023-02-20T17:17:46;8.60;83.60
51719;DHT22;37795;53.236;5.704;2023-02-20T17:20:21;8.50;83.90
51719;DHT22;37795;53.236;5.704;2023-02-20T17:22:48;8.60;84.10
51719;DHT22;37795;53.236;5.704;2023-02-20T17:25:21;8.60;83.80
51719;DHT22;37795;53.236;5.704;2023-02-20T17:27:47;8.60;83.60
51719;DHT22;37795;53.236;5.704;2023-02-20T17:30:14;8.60;84.20
51719;DHT22;37795;53.236;5.704;2023-02-20T17:32:40;8.60;83.80
51719;DHT22;37795;53.236;5.704;2023-02-20T17:35:07;8.50;84.00
51719;DHT22;37795;53.236;5.704;2023-02-20T17:37:33;8.40;84.20
51719;DHT22;37795;53.236;5.704;2023-02-20T17:39:59;8.40;84.40
51719;DHT22;37795;53.236;5.704;2023-02-20T17:42:26;8.40;84.40
51719;DHT22;37795;53.236;5.704;2023-02-20T17:44:52;8.50;84.20
51719;DHT22;37795;53.236;5.704;2023-02-20T17:47:20;8.50;84.30
51719;DHT22;37795;53.236;5.704;2023-02-20T17:49:50;8.50;84.20
51719;DHT22;37795;53.236;5.704;2023-02-20T17:52:16;8.40;84.30
51719;DHT22;37795;53.236;5.704;2023-02-20T17:54:49;8.50;84.40
51719;DHT22;37795;53.236;5.704;2023-02-20T17:57:17;8.40;84.50
51719;DHT22;37795;53.236;5.704;2023-02-20T17:59:46;8.50;84.40
51719;DHT22;37795;53.236;5.704;2023-02-20T18:02:16;8.50;84.30
51719;DHT22;37795;53.236;5.704;2023-02-20T18:04:43;8.50;84.30
51719;DHT22;37795;53.236;5.704;2023-02-20T18:07:09;8.50;84.30
51719;DHT22;37795;53.236;5.704;2023-02-20T18:09:36;8.50;84.40
51719;DHT22;37795;53.236;5.704;2023-02-20T18:12:02;8.50;84.30
51719;DHT22;37795;53.236;5.704;2023-02-20T18:14:28;8.50;84.50
51719;DHT22;37795;53.236;5.704;2023-02-20T18:16:54;8.50;84.40
51719;DHT22;37795;53.236;5.704;2023-02-20T18:19:20;8.50;84.40
51719;DHT22;37795;53.236;5.704;2023-02-20T18:21:48;8.50;84.60
51719;DHT22;37795;53.236;5.704;2023-02-20T18:24:19;8.50;84.50
51719;DHT22;37795;53.236;5.704;2023-02-20T18:26:45;8.40;84.80
51719;DHT22;37795;53.236;5.704;2023-02-20T18:29:11;8.40;84.70